Time,TemperatureF,DewpointF,PressureIn,WindDirection,WindDirectionDegrees,WindSpeedMPH,WindSpeedGustMPH,Humidity,HourlyPrecipIn,Conditions,Clouds,dailyrainin,SoftwareType,DateUTC
2013-05-28 00:02:00,74.0,61.0,29.82,South,170,13.0,30.0,65,-99.99,,,-99.99,,2013-05-28 05:02:00,
2013-05-28 00:12:00,73.0,61.0,29.83,South,170,12.0,18.0,66,-99.99,,,-99.99,,2013-05-28 05:12:00,
2013-05-28 00:22:00,73.0,61.0,29.81,South,170,15.0,23.0,66,-99.99,,,-99.99,,2013-05-28 05:22:00,
2013-05-28 00:33:00,73.0,61.0,29.81,South,175,12.0,21.0,66,-99.99,,,-99.99,,2013-05-28 05:33:00,
2013-05-28 00:42:00,73.0,61.0,29.81,South,175,12.0,21.0,66,-99.99,,,-99.99,,2013-05-28 05:42:00,
2013-05-28 00:52:00,73.0,61.0,29.81,SSE,165,14.0,23.0,67,-99.99,,,-99.99,,2013-05-28 05:52:00,
2013-05-28 01:02:00,73.0,61.0,29.81,SSE,165,14.0,23.0,67,-99.99,,,-99.99,,2013-05-28 06:02:00,
2013-05-28 01:12:00,72.0,61.0,29.81,SSE,165,14.0,22.0,68,-99.99,,,-99.99,,2013-05-28 06:12:00,
2013-05-28 01:21:00,72.0,61.0,29.82,SE,145,12.0,16.0,69,-99.99,,,-99.99,,2013-05-28 06:21:00,
2013-05-28 01:32:00,72.0,61.0,29.80,SSE,150,14.0,19.0,70,-99.99,,,-99.99,,2013-05-28 06:32:00,
2013-05-28 01:42:00,72.0,61.0,29.80,SSE,150,14.0,19.0,70,-99.99,,,-99.99,,2013-05-28 06:42:00,
2013-05-28 01:51:00,71.0,62.0,29.80,SSE,150,10.0,15.0,73,-99.99,,,-99.99,,2013-05-28 06:51:00,
2013-05-28 02:01:00,71.0,62.0,29.80,SSE,150,10.0,15.0,73,-99.99,,,-99.99,,2013-05-28 07:01:00,
2013-05-28 02:11:00,70.0,62.0,29.79,SSE,150,14.0,19.0,74,-99.99,,,-99.99,,2013-05-28 07:11:00,
2013-05-28 02:21:00,70.0,62.0,29.76,SSE,150,16.0,25.0,75,-99.99,,,-99.99,,2013-05-28 07:21:00,
2013-05-28 02:32:00,70.0,62.0,29.75,SSE,155,18.0,24.0,75,-99.99,,,-99.99,,2013-05-28 07:32:00,
2013-05-28 02:42:00,70.0,62.0,29.75,SSE,155,18.0,24.0,75,-99.99,,,-99.99,,2013-05-28 07:42:00,
2013-05-28 02:52:00,70.0,62.0,29.75,SSE,165,15.0,23.0,75,-99.99,,,-99.99,,2013-05-28 07:52:00,
2013-05-28 03:02:00,70.0,62.0,29.75,SSE,165,15.0,23.0,75,-99.99,,,-99.99,,2013-05-28 08:02:00,
2013-05-28 03:12:00,70.0,62.0,29.75,SSE,150,17.0,25.0,75,-99.99,,,-99.99,,2013-05-28 08:12:00,
2013-05-28 03:22:00,70.0,62.0,29.77,SSE,160,13.0,19.0,75,-99.99,,,-99.99,,2013-05-28 08:22:00,
2013-05-28 03:32:00,70.0,62.0,29.77,SSE,160,13.0,19.0,75,-99.99,,,-99.99,,2013-05-28 08:32:00,
2013-05-28 03:42:00,70.0,62.0,29.77,SSE,155,14.0,19.0,75,-99.99,,,-99.99,,2013-05-28 08:42:00,
2013-05-28 03:51:00,70.0,62.0,29.77,South,175,11.0,18.0,75,-99.99,,,-99.99,,2013-05-28 08:51:00,
2013-05-28 04:01:00,70.0,62.0,29.77,South,175,11.0,18.0,75,-99.99,,,-99.99,,2013-05-28 09:01:00,
2013-05-28 04:11:00,70.0,62.0,29.76,SSE,150,15.0,19.0,75,-99.99,,,-99.99,,2013-05-28 09:11:00,
2013-05-28 04:21:00,70.0,62.0,29.75,SSE,160,11.0,22.0,76,-99.99,,,-99.99,,2013-05-28 09:21:00,
2013-05-28 04:33:00,70.0,62.0,29.75,SSE,160,11.0,22.0,76,-99.99,,,-99.99,,2013-05-28 09:33:00,
2013-05-28 04:42:00,70.0,62.0,29.77,SSE,160,9.0,15.0,76,-99.99,,,-99.99,,2013-05-28 09:42:00,
2013-05-28 04:53:00,70.0,62.0,29.79,SSE,160,7.0,11.0,75,-99.99,,,-99.99,,2013-05-28 09:53:00,
2013-05-28 05:03:00,70.0,62.0,29.79,SSE,160,7.0,11.0,75,-99.99,,,-99.99,,2013-05-28 10:03:00,
2013-05-28 05:12:00,70.0,62.0,29.79,SSE,165,9.0,13.0,76,-99.99,,,-99.99,,2013-05-28 10:12:00,
2013-05-28 05:23:00,70.0,62.0,29.80,SSE,150,9.0,12.0,77,-99.99,,,-99.99,,2013-05-28 10:23:00,
2013-05-28 05:32:00,69.0,62.0,29.80,SE,145,11.0,15.0,78,-99.99,,,-99.99,,2013-05-28 10:32:00,
2013-05-28 05:42:00,69.0,62.0,29.80,SE,145,11.0,15.0,78,-99.99,,,-99.99,,2013-05-28 10:42:00,
2013-05-28 05:53:00,69.0,62.0,29.81,SSE,155,9.0,13.0,78,-99.99,,,-99.99,,2013-05-28 10:53:00,
2013-05-28 06:02:00,69.0,62.0,29.81,SSE,155,9.0,13.0,78,-99.99,,,-99.99,,2013-05-28 11:02:00,
2013-05-28 06:11:00,69.0,62.0,29.81,SSE,160,10.0,16.0,78,-99.99,,,-99.99,,2013-05-28 11:11:00,
2013-05-28 06:22:00,69.0,62.0,29.81,SSE,160,11.0,17.0,78,-99.99,,,-99.99,,2013-05-28 11:22:00,
2013-05-28 06:32:00,69.0,62.0,29.81,SSE,160,11.0,17.0,78,-99.99,,,-99.99,,2013-05-28 11:32:00,
2013-05-28 06:42:00,70.0,62.0,29.81,SSE,160,11.0,18.0,78,-99.99,,,-99.99,,2013-05-28 11:42:00,
2013-05-28 06:52:00,70.0,63.0,29.81,SSE,155,10.0,17.0,77,-99.99,,,-99.99,,2013-05-28 11:52:00,
2013-05-28 07:00:00,70.0,63.0,29.82,SE,145,12.0,21.0,78,-99.99,,,-99.99,,2013-05-28 12:00:00,
2013-05-28 07:01:00,70.0,63.0,29.81,SSE,155,10.0,17.0,77,-99.99,,,-99.99,,2013-05-28 12:01:00,
2013-05-28 07:11:00,70.0,62.0,29.82,SSE,155,11.0,16.0,76,-99.99,,,-99.99,,2013-05-28 12:11:00,
2013-05-28 07:21:00,70.0,63.0,29.81,SSE,150,13.0,18.0,77,-99.99,,,-99.99,,2013-05-28 12:21:00,
2013-05-28 07:32:00,70.0,63.0,29.81,SSE,150,13.0,18.0,77,-99.99,,,-99.99,,2013-05-28 12:32:00,
2013-05-28 07:42:00,70.0,63.0,29.82,SE,145,12.0,21.0,78,-99.99,,,-99.99,,2013-05-28 12:42:00,
2013-05-28 07:52:00,70.0,63.0,29.82,SE,145,12.0,21.0,78,-99.99,,,-99.99,,2013-05-28 12:52:00,
2013-05-28 08:11:00,70.0,63.0,29.83,SSE,150,13.0,21.0,79,-99.99,,,-99.99,,2013-05-28 13:11:00,
2013-05-28 08:21:00,70.0,63.0,29.83,SSE,150,12.0,20.0,78,-99.99,,,-99.99,,2013-05-28 13:21:00,
2013-05-28 08:32:00,70.0,63.0,29.83,SSE,150,12.0,20.0,78,-99.99,,,-99.99,,2013-05-28 13:32:00,
2013-05-28 08:42:00,71.0,63.0,29.83,SSE,150,14.0,19.0,78,-99.99,,,-99.99,,2013-05-28 13:42:00,
2013-05-28 08:52:00,72.0,64.0,29.83,SE,145,13.0,21.0,76,-99.99,,,-99.99,,2013-05-28 13:52:00,
2013-05-28 09:02:00,72.0,64.0,29.83,SE,145,13.0,21.0,76,-99.99,,,-99.99,,2013-05-28 14:02:00,
2013-05-28 09:11:00,72.0,64.0,29.84,SSE,155,15.0,23.0,76,-99.99,,,-99.99,,2013-05-28 14:11:00,
2013-05-28 09:21:00,72.0,64.0,29.84,SSE,155,16.0,24.0,76,-99.99,,,-99.99,,2013-05-28 14:21:00,
2013-05-28 09:32:00,72.0,64.0,29.83,SSE,150,13.0,23.0,76,-99.99,,,-99.99,,2013-05-28 14:32:00,
2013-05-28 09:42:00,72.0,64.0,29.83,SSE,150,13.0,23.0,76,-99.99,,,-99.99,,2013-05-28 14:42:00,
2013-05-28 09:52:00,73.0,65.0,29.83,SSE,155,21.0,29.0,74,-99.99,,,-99.99,,2013-05-28 14:52:00,
2013-05-28 10:01:00,73.0,65.0,29.83,SSE,155,21.0,29.0,74,-99.99,,,-99.99,,2013-05-28 15:01:00,
2013-05-28 10:11:00,73.0,65.0,29.83,SSE,160,16.0,26.0,74,-99.99,,,-99.99,,2013-05-28 15:11:00,
2013-05-28 10:20:00,74.0,64.0,29.85,South,185,13.0,19.0,71,-99.99,,,-99.99,,2013-05-28 15:20:00,
2013-05-28 10:21:00,73.0,65.0,29.83,SSE,165,13.0,26.0,74,-99.99,,,-99.99,,2013-05-28 15:21:00,
2013-05-28 10:33:00,73.0,65.0,29.83,SSE,165,13.0,26.0,74,-99.99,,,-99.99,,2013-05-28 15:33:00,
2013-05-28 10:43:00,73.0,65.0,29.84,South,180,15.0,22.0,74,-99.99,,,-99.99,,2013-05-28 15:43:00,
2013-05-28 10:52:00,74.0,64.0,29.85,South,185,13.0,19.0,71,-99.99,,,-99.99,,2013-05-28 15:52:00,
2013-05-28 11:03:00,74.0,64.0,29.85,South,185,13.0,19.0,71,-99.99,,,-99.99,,2013-05-28 16:03:00,
2013-05-28 11:13:00,74.0,64.0,29.85,South,185,13.0,19.0,71,-99.99,,,-99.99,,2013-05-28 16:13:00,
2013-05-28 11:52:00,74.0,64.0,29.85,South,175,17.0,23.0,72,-99.99,,,-99.99,,2013-05-28 16:52:00,
2013-05-28 12:00:00,74.0,63.0,29.85,SSE,165,16.0,24.0,68,-99.99,,,-99.99,,2013-05-28 17:00:00,
2013-05-28 12:02:00,74.0,64.0,29.85,South,175,17.0,23.0,72,-99.99,,,-99.99,,2013-05-28 17:02:00,
2013-05-28 12:12:00,74.0,63.0,29.85,SSE,165,20.0,29.0,69,-99.99,,,-99.99,,2013-05-28 17:12:00,
2013-05-28 12:22:00,74.0,63.0,29.86,South,190,15.0,27.0,68,-99.99,,,-99.99,,2013-05-28 17:22:00,
2013-05-28 12:32:00,74.0,63.0,29.86,South,190,15.0,27.0,68,-99.99,,,-99.99,,2013-05-28 17:32:00,
2013-05-28 12:42:00,74.0,63.0,29.85,SSE,165,16.0,24.0,68,-99.99,,,-99.99,,2013-05-28 17:42:00,
2013-05-28 12:51:00,74.0,63.0,29.85,SSE,165,16.0,24.0,68,-99.99,,,-99.99,,2013-05-28 17:51:00,
2013-05-28 15:22:00,75.0,62.0,29.83,SSE,150,21.0,29.0,63,-99.99,,,-99.99,,2013-05-28 20:22:00,
2013-05-28 15:32:00,75.0,63.0,29.83,SSE,150,15.0,22.0,65,-99.99,,,-99.99,,2013-05-28 20:32:00,
2013-05-28 15:42:00,75.0,63.0,29.83,SSE,150,15.0,22.0,65,-99.99,,,-99.99,,2013-05-28 20:42:00,
2013-05-28 15:52:00,77.0,64.0,29.83,SSE,150,15.0,20.0,65,-99.99,,,-99.99,,2013-05-28 20:52:00,
2013-05-28 16:02:00,77.0,64.0,29.83,SSE,150,15.0,20.0,65,-99.99,,,-99.99,,2013-05-28 21:02:00,
2013-05-28 16:11:00,78.0,64.0,29.82,SSE,160,24.0,33.0,62,-99.99,,,-99.99,,2013-05-28 21:11:00,
2013-05-28 16:21:00,79.0,65.0,29.82,SE,145,19.0,29.0,61,-99.99,,,-99.99,,2013-05-28 21:21:00,
2013-05-28 16:33:00,79.0,65.0,29.82,SE,145,19.0,29.0,61,-99.99,,,-99.99,,2013-05-28 21:33:00,
2013-05-28 16:43:00,80.0,65.0,29.82,SSE,165,18.0,27.0,60,-99.99,,,-99.99,,2013-05-28 21:43:00,
2013-05-28 16:53:00,80.0,64.0,29.81,SSE,150,21.0,31.0,59,-99.99,,,-99.99,,2013-05-28 21:53:00,
2013-05-28 17:02:00,80.0,64.0,29.81,SSE,150,21.0,31.0,59,-99.99,,,-99.99,,2013-05-28 22:02:00,
2013-05-28 17:12:00,80.0,65.0,29.81,SSE,155,17.0,25.0,60,-99.99,,,-99.99,,2013-05-28 22:12:00,
2013-05-28 17:22:00,81.0,66.0,29.82,SE,145,11.0,19.0,60,-99.99,,,-99.99,,2013-05-28 22:22:00,
2013-05-28 17:33:00,81.0,66.0,29.82,SE,145,11.0,19.0,60,-99.99,,,-99.99,,2013-05-28 22:33:00,
2013-05-28 17:42:00,82.0,63.0,29.82,South,185,12.0,22.0,54,-99.99,,,-99.99,,2013-05-28 22:42:00,
2013-05-28 17:52:00,82.0,63.0,29.81,SSE,165,14.0,25.0,52,-99.99,,,-99.99,,2013-05-28 22:52:00,
2013-05-28 18:02:00,82.0,63.0,29.81,SSE,165,14.0,25.0,52,-99.99,,,-99.99,,2013-05-28 23:02:00,
2013-05-28 18:11:00,82.0,62.0,29.81,South,175,16.0,26.0,51,-99.99,,,-99.99,,2013-05-28 23:11:00,
2013-05-28 18:22:00,81.0,62.0,29.80,South,170,19.0,28.0,52,-99.99,,,-99.99,,2013-05-28 23:22:00,
2013-05-28 18:32:00,81.0,62.0,29.80,South,170,19.0,28.0,52,-99.99,,,-99.99,,2013-05-28 23:32:00,
2013-05-28 18:42:00,81.0,63.0,29.81,South,170,8.0,19.0,54,-99.99,,,-99.99,,2013-05-28 23:42:00,
2013-05-28 18:52:00,80.0,64.0,29.81,SSE,155,11.0,22.0,58,-99.99,,,-99.99,,2013-05-28 23:52:00,
2013-05-28 19:02:00,80.0,64.0,29.81,SSE,155,11.0,22.0,58,-99.99,,,-99.99,,2013-05-29 00:02:00,
2013-05-28 19:11:00,80.0,63.0,29.81,SSE,160,21.0,27.0,56,-99.99,,,-99.99,,2013-05-29 00:11:00,
2013-05-28 19:21:00,80.0,63.0,29.81,SSE,160,18.0,24.0,56,-99.99,,,-99.99,,2013-05-29 00:21:00,
2013-05-28 19:32:00,80.0,63.0,29.81,SSE,160,18.0,24.0,56,-99.99,,,-99.99,,2013-05-29 00:32:00,
2013-05-28 19:42:00,80.0,62.0,29.79,SSE,155,21.0,29.0,56,-99.99,,,-99.99,,2013-05-29 00:42:00,
2013-05-28 19:52:00,79.0,62.0,29.81,SSE,150,17.0,23.0,57,-99.99,,,-99.99,,2013-05-29 00:52:00,
2013-05-28 20:00:00,77.0,62.0,29.79,SSE,150,20.0,27.0,60,-99.99,,,-99.99,,2013-05-29 01:00:00,
2013-05-28 20:01:00,79.0,62.0,29.81,SSE,150,17.0,23.0,57,-99.99,,,-99.99,,2013-05-29 01:01:00,
2013-05-28 20:11:00,78.0,63.0,29.81,SSE,150,15.0,26.0,59,-99.99,,,-99.99,,2013-05-29 01:11:00,
2013-05-28 20:22:00,78.0,62.0,29.81,SSE,165,16.0,28.0,59,-99.99,,,-99.99,,2013-05-29 01:22:00,
2013-05-28 20:32:00,77.0,62.0,29.79,SSE,150,20.0,27.0,60,-99.99,,,-99.99,,2013-05-29 01:32:00,
2013-05-28 20:42:00,77.0,62.0,29.79,SSE,150,20.0,27.0,60,-99.99,,,-99.99,,2013-05-29 01:42:00,
2013-05-28 20:52:00,77.0,62.0,29.79,SSE,150,20.0,27.0,60,-99.99,,,-99.99,,2013-05-29 01:52:00,
2013-05-28 21:00:00,75.0,61.0,29.83,SE,145,12.0,19.0,62,-99.99,,,-99.99,,2013-05-29 02:00:00,
2013-05-28 21:12:00,76.0,61.0,29.79,SSE,150,17.0,27.0,61,-99.99,,,-99.99,,2013-05-29 02:12:00,
2013-05-28 21:21:00,76.0,61.0,29.81,SSE,165,14.0,23.0,61,-99.99,,,-99.99,,2013-05-29 02:21:00,
2013-05-28 21:32:00,75.0,61.0,29.83,SE,145,12.0,19.0,62,-99.99,,,-99.99,,2013-05-29 02:32:00,
2013-05-28 21:42:00,75.0,61.0,29.83,SE,145,12.0,19.0,62,-99.99,,,-99.99,,2013-05-29 02:42:00,
2013-05-28 21:51:00,75.0,61.0,29.83,SE,145,12.0,19.0,62,-99.99,,,-99.99,,2013-05-29 02:51:00,
2013-05-28 22:12:00,74.0,61.0,29.84,SSE,150,9.0,16.0,64,-99.99,,,-99.99,,2013-05-29 03:12:00,
2013-05-28 22:21:00,74.0,61.0,29.86,SSE,150,8.0,11.0,65,-99.99,,,-99.99,,2013-05-29 03:21:00,
2013-05-28 22:33:00,74.0,61.0,29.86,SSE,150,8.0,11.0,65,-99.99,,,-99.99,,2013-05-29 03:33:00,
2013-05-28 22:43:00,73.0,61.0,29.87,SSE,165,6.0,11.0,66,-99.99,,,-99.99,,2013-05-29 03:43:00,
2013-05-28 22:53:00,73.0,61.0,29.87,SSE,150,7.0,11.0,67,-99.99,,,-99.99,,2013-05-29 03:53:00,
2013-05-28 23:02:00,73.0,61.0,29.87,SSE,150,7.0,11.0,67,-99.99,,,-99.99,,2013-05-29 04:02:00,
2013-05-28 23:13:00,72.0,61.0,29.88,SE,140,7.0,10.0,68,-99.99,,,-99.99,,2013-05-29 04:13:00,
2013-05-28 23:23:00,71.0,61.0,29.87,SE,125,6.0,9.0,71,-99.99,,,-99.99,,2013-05-29 04:23:00,
2013-05-28 23:33:00,70.0,61.0,29.88,SE,140,5.0,8.0,73,-99.99,,,-99.99,,2013-05-29 04:33:00,
2013-05-28 23:42:00,70.0,61.0,29.88,SE,140,5.0,8.0,73,-99.99,,,-99.99,,2013-05-29 04:42:00,
2013-05-28 23:52:00,70.0,61.0,29.88,SE,130,6.0,9.0,73,-99.99,,,-99.99,,2013-05-29 04:52:00,